Time;durP1;ratioP1;P1;durP2;ratioP2;P2;SDS_P1;SDS_P2;PMS_P1;PMS_P2;Temp;Humidity;BMP_temperature;BMP_pressure;BME280_temperature;BME280_humidity;BME280_pressure;Samples;Min_cycle;Max_cycle;Signal;HPM_P1;HPM_P2
2021/08/10 00:00:24;;;;;;;3.07;2.00;;;18.70;87.10;;;;;;5075515;28;20478;-74
2021/08/10 00:02:51;;;;;;;5.10;2.20;;;18.70;87.20;;;;;;5075243;28;20934;-74
2021/08/10 00:05:17;;;;;;;3.77;2.20;;;18.70;87.30;;;;;;5075403;28;20468;-74
2021/08/10 00:07:45;;;;;;;6.53;2.23;;;18.70;87.30;;;;;;5075446;28;20441;-74
2021/08/10 00:10:13;;;;;;;4.63;2.30;;;18.60;87.20;;;;;;5075085;28;20935;-74
2021/08/10 00:12:39;;;;;;;5.30;1.80;;;18.60;87.30;;;;;;5075327;28;20452;-74
2021/08/10 00:15:08;;;;;;;2.43;2.10;;;18.60;87.40;;;;;;5075161;28;20981;-74
2021/08/10 00:17:35;;;;;;;4.93;2.80;;;18.60;87.30;;;;;;5075257;28;20448;-74
2021/08/10 00:20:02;;;;;;;7.50;2.70;;;18.50;87.20;;;;;;5075112;28;20441;-74
2021/08/10 00:22:28;;;;;;;6.77;2.60;;;18.50;87.30;;;;;;5075132;28;20457;-74
2021/08/10 00:24:56;;;;;;;6.50;2.50;;;18.50;87.30;;;;;;5075045;28;20498;-74
2021/08/10 00:27:23;;;;;;;5.87;2.90;;;18.50;87.30;;;;;;5075027;28;20451;-74
2021/08/10 00:29:50;;;;;;;6.90;1.93;;;18.40;87.40;;;;;;5074991;28;20842;-74
2021/08/10 00:32:16;;;;;;;5.40;2.17;;;18.50;87.70;;;;;;5074964;28;20440;-74
2021/08/10 00:34:43;;;;;;;6.43;2.40;;;18.50;87.60;;;;;;5074902;28;20452;-74
2021/08/10 00:37:10;;;;;;;8.50;2.67;;;18.40;87.60;;;;;;5074778;28;20468;-74
2021/08/10 00:39:37;;;;;;;3.57;1.83;;;18.40;87.40;;;;;;5074075;28;20821;-74
2021/08/10 00:42:06;;;;;;;7.40;2.13;;;18.40;87.40;;;;;;5074682;28;20476;-74
2021/08/10 00:44:33;;;;;;;5.83;2.27;;;18.40;87.50;;;;;;5074376;28;20931;-74
2021/08/10 00:47:00;;;;;;;6.80;3.17;;;18.40;87.50;;;;;;5074591;28;20464;-74
2021/08/10 00:49:27;;;;;;;5.33;2.57;;;18.40;87.30;;;;;;5074869;28;20444;-74
2021/08/10 00:51:53;;;;;;;7.77;3.50;;;18.40;87.20;;;;;;5074542;28;20441;-74
2021/08/10 00:54:20;;;;;;;9.87;3.70;;;18.40;87.30;;;;;;5074525;28;20451;-74
2021/08/10 00:56:47;;;;;;;11.50;3.77;;;18.40;87.40;;;;;;5074390;28;20834;-73
2021/08/10 00:59:15;;;;;;;8.50;3.87;;;18.30;87.20;;;;;;5074429;28;20448;-74
2021/08/10 01:01:42;;;;;;;6.33;3.80;;;18.40;87.40;;;;;;5073966;28;21012;-74
2021/08/10 01:04:09;;;;;;;5.63;3.20;;;18.40;87.40;;;;;;5074346;28;20900;-74
2021/08/10 01:06:47;;;;;;;8.73;3.40;;;18.40;88.10;;;;;;5074169;28;20461;-74
2021/08/10 01:09:21;;;;;;;3.83;2.63;;;18.40;87.20;;;;;;5074249;28;20444;-74
2021/08/10 01:11:53;;;;;;;5.30;2.43;;;18.40;87.00;;;;;;5074165;28;20460;-74
2021/08/10 01:14:26;;;;;;;3.83;1.97;;;18.40;87.10;;;;;;5074120;28;20425;-74
2021/08/10 01:17:01;;;;;;;4.90;2.83;;;18.30;87.00;;;;;;5074019;28;20464;-75
2021/08/10 01:19:51;;;;;;;5.83;2.83;;;18.30;87.20;;;;;;5073756;28;20999;-75
2021/08/10 01:22:21;;;;;;;5.93;2.57;;;18.30;87.10;;;;;;5073668;28;20853;-74
2021/08/10 01:24:52;;;;;;;6.53;2.60;;;18.40;87.30;;;;;;5073930;28;20425;-73
2021/08/10 01:27:33;;;;;;;8.47;2.67;;;18.30;87.10;;;;;;5074512;28;20433;-73
2021/08/10 01:30:08;;;;;;;6.13;2.03;;;18.30;87.00;;;;;;5073933;28;20428;-74
2021/08/10 01:32:38;;;;;;;6.60;2.40;;;18.30;86.90;;;;;;5073882;28;20425;-74
2021/08/10 01:35:07;;;;;;;5.37;2.60;;;18.20;87.00;;;;;;5073787;28;20429;-73
2021/08/10 01:37:35;;;;;;;4.20;2.47;;;18.20;87.30;;;;;;5073469;28;20931;-74
2021/08/10 01:40:05;;;;;;;6.73;2.87;;;18.20;87.50;;;;;;5073734;28;20815;-75
2021/08/10 01:42:33;;;;;;;5.10;2.40;;;18.20;87.50;;;;;;5073672;28;20465;-74
2021/08/10 01:45:02;;;;;;;6.87;2.70;;;18.10;87.50;;;;;;5073600;28;20456;-74
2021/08/10 01:47:30;;;;;;;3.20;1.90;;;18.10;87.70;;;;;;5073648;28;20449;-73
2021/08/10 01:49:59;;;;;;;3.73;2.17;;;18.10;87.80;;;;;;5073560;28;20444;-75
2021/08/10 01:52:27;;;;;;;2.87;2.10;;;18.10;88.00;;;;;;5073573;28;20440;-75
2021/08/10 01:54:55;;;;;;;7.47;2.83;;;18.10;88.20;;;;;;5073481;28;20448;-75
2021/08/10 01:57:23;;;;;;;7.37;3.33;;;18.00;88.30;;;;;;5073450;28;20444;-75
2021/08/10 01:59:52;;;;;;;3.70;2.57;;;18.00;88.20;;;;;;5073479;28;20445;-75
2021/08/10 02:02:20;;;;;;;6.40;2.57;;;18.00;88.30;;;;;;5073427;28;20480;-75
2021/08/10 02:04:49;;;;;;;5.37;2.50;;;17.90;88.30;;;;;;5073468;28;20437;-75
2021/08/10 02:07:18;;;;;;;4.70;3.17;;;17.90;88.60;;;;;;5073140;28;20935;-75
2021/08/10 02:09:45;;;;;;;4.30;2.60;;;17.90;88.90;;;;;;5073419;28;20875;-75
2021/08/10 02:12:13;;;;;;;3.80;2.27;;;17.90;89.10;;;;;;5073379;28;20455;-75
2021/08/10 02:14:40;;;;;;;2.00;1.73;;;17.80;89.30;;;;;;5073363;28;20444;-75
2021/08/10 02:17:08;;;;;;;4.60;2.17;;;17.80;89.50;;;;;;5073283;28;20460;-75
2021/08/10 02:19:36;;;;;;;3.40;2.27;;;17.80;89.70;;;;;;5073332;28;20449;-75
2021/08/10 02:22:05;;;;;;;2.60;2.37;;;17.80;89.80;;;;;;5073012;28;20913;-75
2021/08/10 02:24:39;;;;;;;7.33;2.70;;;17.80;89.80;;;;;;5073282;28;20432;-75
2021/08/10 02:27:09;;;;;;;4.30;2.20;;;17.90;90.00;;;;;;5073199;28;20464;-75
2021/08/10 02:29:40;;;;;;;4.13;2.77;;;17.90;90.00;;;;;;5073291;28;20437;-75
2021/08/10 02:32:09;;;;;;;2.73;2.50;;;17.90;90.00;;;;;;5073247;28;20427;-75
2021/08/10 02:34:37;;;;;;;5.03;2.80;;;17.90;89.90;;;;;;5073184;28;20448;-74
2021/08/10 02:37:06;;;;;;;4.77;2.70;;;17.90;89.80;;;;;;5072733;28;20460;-74
2021/08/10 02:39:37;;;;;;;6.83;2.90;;;18.00;89.70;;;;;;5073102;28;20957;-73
2021/08/10 02:42:05;;;;;;;6.20;2.70;;;17.90;89.60;;;;;;5073044;28;20460;-73
2021/08/10 02:44:34;;;;;;;8.23;2.70;;;17.90;90.00;;;;;;5073057;28;20445;-72
2021/08/10 02:47:01;;;;;;;8.30;3.73;;;17.90;90.60;;;;;;5072641;28;20828;-69
2021/08/10 02:49:27;;;;;;;8.90;2.63;;;17.80;91.40;;;;;;5073004;28;20444;-70
2021/08/10 02:51:55;;;;;;;5.03;3.50;;;17.60;92.10;;;;;;5072994;28;20444;-70
2021/08/10 02:54:22;;;;;;;4.07;3.20;;;17.40;92.50;;;;;;5072949;28;20543;-72
2021/08/10 02:56:56;;;;;;;5.70;3.00;;;17.20;92.50;;;;;;5072914;28;20825;-72
2021/08/10 02:59:27;;;;;;;4.70;2.50;;;17.10;92.70;;;;;;5072954;28;20435;-72
2021/08/10 03:02:01;;;;;;;6.80;2.90;;;16.90;92.60;;;;;;5073906;28;20517;-72
2021/08/10 03:04:31;;;;;;;5.10;3.23;;;16.80;92.90;;;;;;5076669;28;20424;-73
2021/08/10 03:06:59;;;;;;;4.67;2.80;;;16.80;92.90;;;;;;5076517;28;20465;-72
2021/08/10 03:09:27;;;;;;;4.57;2.80;;;16.70;93.10;;;;;;5076529;28;20441;-72
2021/08/10 03:11:59;;;;;;;4.20;2.80;;;16.70;93.20;;;;;;5076478;28;20448;-72
2021/08/10 03:14:26;;;;;;;7.53;3.10;;;16.70;93.20;;;;;;5076527;28;20457;-72
2021/08/10 03:16:55;;;;;;;3.37;2.80;;;16.70;93.50;;;;;;5076494;28;20460;-72
2021/08/10 03:19:23;;;;;;;3.93;3.33;;;16.70;93.50;;;;;;5076357;28;20450;-72
2021/08/10 03:21:51;;;;;;;4.00;2.63;;;16.70;93.30;;;;;;5076392;28;20484;-71
2021/08/10 03:24:20;;;;;;;4.33;3.13;;;16.70;93.20;;;;;;5076014;28;20899;-72
2021/08/10 03:26:49;;;;;;;4.23;3.40;;;16.70;93.30;;;;;;5076161;28;20518;-72
2021/08/10 03:29:21;;;;;;;5.20;3.33;;;16.80;93.40;;;;;;5076193;28;20445;-72
2021/08/10 03:31:48;;;;;;;5.30;3.17;;;16.80;93.50;;;;;;5076437;28;20422;-72
2021/08/10 03:34:18;;;;;;;4.77;3.47;;;16.90;93.50;;;;;;5076078;28;20449;-71
2021/08/10 03:36:45;;;;;;;4.20;3.30;;;17.00;93.40;;;;;;5075967;28;20460;-71
2021/08/10 03:39:12;;;;;;;4.30;2.90;;;17.00;93.30;;;;;;5076011;28;20448;-71
2021/08/10 03:41:40;;;;;;;7.93;3.10;;;17.00;93.10;;;;;;5075886;28;20483;-72
2021/08/10 03:44:07;;;;;;;5.80;3.83;;;17.10;92.90;;;;;;5075610;28;21001;-72
2021/08/10 03:46:35;;;;;;;5.63;2.40;;;17.10;92.90;;;;;;5075811;28;20461;-72
2021/08/10 03:49:02;;;;;;;7.73;4.20;;;17.10;92.70;;;;;;5075789;28;20444;-72
2021/08/10 03:51:30;;;;;;;4.20;3.30;;;17.20;92.70;;;;;;5075807;28;20432;-72
2021/08/10 03:53:57;;;;;;;4.07;2.97;;;17.20;92.60;;;;;;5075759;28;20449;-72
2021/08/10 03:56:25;;;;;;;6.97;3.90;;;17.30;92.50;;;;;;5075627;28;20467;-73
2021/08/10 03:58:54;;;;;;;7.43;3.80;;;17.30;92.50;;;;;;5075307;28;20487;-73
2021/08/10 04:01:22;;;;;;;5.30;3.07;;;17.30;92.50;;;;;;5075242;28;20973;-73
2021/08/10 04:03:51;;;;;;;4.97;3.10;;;17.30;92.50;;;;;;5075576;28;20486;-73
2021/08/10 04:06:18;;;;;;;6.43;3.13;;;17.40;92.40;;;;;;5075690;28;20469;-73
2021/08/10 04:08:45;;;;;;;5.30;3.30;;;17.40;92.30;;;;;;5075463;28;20856;-73
2021/08/10 04:11:12;;;;;;;3.93;2.93;;;17.40;92.20;;;;;;5075384;28;20450;-73
2021/08/10 04:13:40;;;;;;;5.53;3.17;;;17.50;92.00;;;;;;5073887;28;20931;-73
2021/08/10 04:16:09;;;;;;;5.40;3.60;;;17.50;91.90;;;;;;5075511;28;20464;-73
2021/08/10 04:18:37;;;;;;;5.67;3.63;;;17.50;91.80;;;;;;5075496;28;20444;-73
2021/08/10 04:21:05;;;;;;;3.93;3.53;;;17.60;91.70;;;;;;5074866;28;20456;-73
2021/08/10 04:23:31;;;;;;;3.50;2.57;;;17.60;91.50;;;;;;5074685;28;20480;-73
2021/08/10 04:25:58;;;;;;;3.50;2.97;;;17.60;91.30;;;;;;5074746;28;20471;-73
2021/08/10 04:28:25;;;;;;;3.27;2.73;;;17.60;91.20;;;;;;5075054;28;20472;-73
2021/08/10 04:30:52;;;;;;;3.70;3.30;;;17.60;91.10;;;;;;5075595;28;20421;-73
2021/08/10 04:33:19;;;;;;;3.53;2.97;;;17.60;90.90;;;;;;5074946;28;20511;-73
2021/08/10 04:35:45;;;;;;;4.80;3.30;;;17.60;90.70;;;;;;5074507;28;20978;-73
2021/08/10 04:38:13;;;;;;;4.13;3.00;;;17.60;90.50;;;;;;5074845;28;20455;-74
2021/08/10 04:40:40;;;;;;;3.67;2.67;;;17.60;90.30;;;;;;5074491;28;20444;-74
2021/08/10 04:43:07;;;;;;;5.03;3.50;;;17.60;90.10;;;;;;5074936;28;20507;-74
2021/08/10 04:45:33;;;;;;;5.03;2.70;;;17.60;89.80;;;;;;5074616;28;20468;-74
2021/08/10 04:48:00;;;;;;;4.13;3.17;;;17.60;89.70;;;;;;5074669;28;20445;-74
2021/08/10 04:50:27;;;;;;;3.53;3.03;;;17.60;89.70;;;;;;5074622;28;20448;-74
2021/08/10 04:52:53;;;;;;;3.40;3.10;;;17.60;89.90;;;;;;5074586;28;20432;-74
2021/08/10 04:55:22;;;;;;;6.47;2.80;;;17.60;89.70;;;;;;5074443;28;20468;-74
2021/08/10 04:57:48;;;;;;;5.77;2.37;;;17.60;89.30;;;;;;5074473;28;20441;-74
2021/08/10 05:00:15;;;;;;;4.80;3.30;;;17.60;89.00;;;;;;5074343;28;20951;-74
2021/08/10 05:02:42;;;;;;;5.53;2.80;;;17.60;88.80;;;;;;5074261;28;20473;-74
2021/08/10 05:05:10;;;;;;;3.00;2.70;;;17.60;88.80;;;;;;5074298;28;20472;-74
2021/08/10 05:07:37;;;;;;;4.53;3.27;;;17.60;88.90;;;;;;5074301;28;20493;-74
2021/08/10 05:10:04;;;;;;;2.93;2.73;;;17.60;88.90;;;;;;5074532;28;20447;-73
2021/08/10 05:12:34;;;;;;;2.80;2.43;;;17.60;89.00;;;;;;5074431;28;20452;-73
2021/08/10 05:15:01;;;;;;;8.73;3.67;;;17.60;89.00;;;;;;5074001;28;20830;-73
2021/08/10 05:17:28;;;;;;;4.17;3.20;;;17.60;89.10;;;;;;5074082;28;20939;-74
2021/08/10 05:19:55;;;;;;;4.77;3.20;;;17.60;89.10;;;;;;5073798;28;20931;-74
2021/08/10 05:22:22;;;;;;;7.87;2.80;;;17.70;89.50;;;;;;5073780;28;20488;-74
2021/08/10 05:24:48;;;;;;;4.30;3.50;;;17.70;89.70;;;;;;5077661;28;20866;-74
2021/08/10 05:27:15;;;;;;;5.00;2.70;;;17.70;89.90;;;;;;5075655;28;20448;-74
2021/08/10 05:29:43;;;;;;;4.13;2.70;;;17.70;90.20;;;;;;5074213;28;20451;-74
2021/08/10 05:32:10;;;;;;;4.73;3.27;;;17.70;90.40;;;;;;5074220;28;20791;-74
2021/08/10 05:34:38;;;;;;;3.57;3.17;;;17.70;90.70;;;;;;5074107;28;20440;-74
2021/08/10 05:37:05;;;;;;;3.90;2.83;;;17.80;90.90;;;;;;5074004;28;20535;-74
2021/08/10 05:39:32;;;;;;;7.53;3.00;;;17.80;91.10;;;;;;5074022;28;20444;-73
2021/08/10 05:41:59;;;;;;;3.40;3.10;;;17.80;91.10;;;;;;5073881;28;20473;-74
2021/08/10 05:44:26;;;;;;;3.20;2.90;;;17.80;91.30;;;;;;5073577;28;20440;-74
2021/08/10 05:46:55;;;;;;;4.20;3.13;;;17.80;91.50;;;;;;5073926;28;20852;-74
2021/08/10 05:49:21;;;;;;;4.53;3.20;;;17.80;91.60;;;;;;5073504;28;20915;-74
2021/08/10 05:51:48;;;;;;;2.70;2.47;;;17.80;91.80;;;;;;5073947;28;20449;-74
2021/08/10 05:54:15;;;;;;;6.63;3.60;;;17.80;91.90;;;;;;5074190;28;20440;-74
2021/08/10 05:56:42;;;;;;;4.93;3.03;;;17.90;92.10;;;;;;5073698;28;20453;-74
2021/08/10 05:59:09;;;;;;;5.57;3.63;;;17.90;92.20;;;;;;5073523;28;20962;-74
2021/08/10 06:01:36;;;;;;;5.03;3.77;;;17.90;92.20;;;;;;5074333;28;20444;-74
2021/08/10 06:04:05;;;;;;;5.57;3.30;;;18.00;92.30;;;;;;5078455;28;20477;-74
2021/08/10 06:06:34;;;;;;;3.70;2.93;;;18.10;92.30;;;;;;5079172;28;20472;-74
2021/08/10 06:09:01;;;;;;;4.33;2.73;;;18.10;92.40;;;;;;5073550;28;20445;-74
2021/08/10 06:11:27;;;;;;;10.93;4.43;;;18.10;92.10;;;;;;5073297;28;20946;-74
2021/08/10 06:13:54;;;;;;;3.63;2.87;;;18.30;92.40;;;;;;5073335;28;20922;-74
2021/08/10 06:16:21;;;;;;;2.97;2.63;;;18.40;92.50;;;;;;5073500;28;20464;-74
2021/08/10 06:18:48;;;;;;;3.90;2.70;;;18.60;92.40;;;;;;5073454;28;20494;-74
2021/08/10 06:21:16;;;;;;;7.03;3.60;;;18.70;92.30;;;;;;5073548;28;20455;-74
2021/08/10 06:23:42;;;;;;;3.70;2.87;;;18.80;91.70;;;;;;5073323;28;20491;-74
2021/08/10 06:26:09;;;;;;;7.10;3.53;;;18.90;91.50;;;;;;5073474;28;20460;-74
2021/08/10 06:28:36;;;;;;;3.40;3.00;;;19.00;91.10;;;;;;5073093;28;20444;-74
2021/08/10 06:31:03;;;;;;;5.30;3.23;;;19.10;90.80;;;;;;5073508;28;20445;-74
2021/08/10 06:33:30;;;;;;;4.03;2.90;;;19.10;90.60;;;;;;5073231;28;20926;-75
2021/08/10 06:35:57;;;;;;;6.80;3.07;;;19.10;90.60;;;;;;5073679;28;20465;-74
2021/08/10 06:38:25;;;;;;;5.13;3.07;;;19.20;90.70;;;;;;5077487;28;20440;-75
2021/08/10 06:40:52;;;;;;;5.00;3.53;;;19.30;90.70;;;;;;5077758;28;20452;-74
2021/08/10 06:43:19;;;;;;;4.73;2.93;;;19.30;90.70;;;;;;5078987;28;20476;-75
2021/08/10 06:45:45;;;;;;;4.70;3.20;;;19.40;90.60;;;;;;5084495;28;20468;-75
2021/08/10 06:48:12;;;;;;;5.07;3.10;;;19.50;90.60;;;;;;5078866;28;20444;-75
2021/08/10 06:50:39;;;;;;;6.83;2.90;;;19.50;90.50;;;;;;5077821;28;20934;-75
2021/08/10 06:53:06;;;;;;;2.97;2.40;;;19.50;90.40;;;;;;5077607;28;20440;-75
2021/08/10 06:55:34;;;;;;;4.70;3.00;;;19.50;90.40;;;;;;5077333;28;20978;-75
2021/08/10 06:58:01;;;;;;;4.90;3.00;;;19.60;90.10;;;;;;5077442;28;20816;-75
2021/08/10 07:00:27;;;;;;;4.23;2.50;;;19.70;90.00;;;;;;5076933;28;20934;-75
2021/08/10 07:02:54;;;;;;;5.70;3.17;;;20.00;90.10;;;;;;5077409;28;20480;-75
2021/08/10 07:05:21;;;;;;;3.50;2.77;;;20.20;89.50;;;;;;5076932;28;20468;-75
2021/08/10 07:07:48;;;;;;;3.90;2.70;;;20.50;89.20;;;;;;5076998;28;20479;-76
2021/08/10 07:10:15;;;;;;;9.60;3.20;;;20.70;87.80;;;;;;5076816;28;20447;-75
2021/08/10 07:12:43;;;;;;;3.80;2.67;;;20.80;86.90;;;;;;5076674;28;20441;-75
2021/08/10 07:15:10;;;;;;;4.53;3.20;;;21.00;87.10;;;;;;5076609;28;20447;-75
2021/08/10 07:17:37;;;;;;;7.90;2.80;;;21.00;85.70;;;;;;5076934;28;20440;-75
2021/08/10 07:20:04;;;;;;;3.30;2.63;;;21.10;84.80;;;;;;5076417;28;20810;-75
2021/08/10 07:22:30;;;;;;;3.53;3.07;;;21.20;83.90;;;;;;5076260;28;20492;-75
2021/08/10 07:24:57;;;;;;;5.00;2.77;;;21.30;82.80;;;;;;5076319;28;20451;-73
2021/08/10 07:27:24;;;;;;;3.50;2.50;;;21.30;81.90;;;;;;5076337;28;20449;-74
2021/08/10 07:29:53;;;;;;;5.50;2.50;;;21.40;81.50;;;;;;5075911;28;20830;-74
2021/08/10 07:32:19;;;;;;;3.33;2.87;;;21.40;80.50;;;;;;5076176;28;20460;-74
2021/08/10 07:34:46;;;;;;;8.43;3.30;;;21.40;80.60;;;;;;5076299;28;20467;-74
2021/08/10 07:37:13;;;;;;;4.43;3.03;;;21.40;81.40;;;;;;5076119;28;20468;-74
2021/08/10 07:39:40;;;;;;;6.13;3.40;;;21.40;81.10;;;;;;5076064;28;20445;-74
2021/08/10 07:42:06;;;;;;;4.80;3.27;;;21.40;80.80;;;;;;5076012;28;20444;-74
2021/08/10 07:44:33;;;;;;;8.13;3.00;;;21.50;81.80;;;;;;5075883;28;20484;-74
2021/08/10 07:47:03;;;;;;;3.97;3.20;;;21.70;81.30;;;;;;5075874;28;20496;-74
2021/08/10 07:49:30;;;;;;;6.27;3.30;;;21.80;80.80;;;;;;5075413;28;20440;-74
2021/08/10 07:51:57;;;;;;;5.30;2.90;;;22.00;78.60;;;;;;5075812;28;20445;-75
2021/08/10 07:54:23;;;;;;;5.47;3.10;;;22.10;78.10;;;;;;5075794;28;20448;-75
2021/08/10 07:56:50;;;;;;;4.23;3.23;;;22.20;78.70;;;;;;5075793;28;20491;-74
2021/08/10 07:59:17;;;;;;;3.40;3.10;;;22.30;79.20;;;;;;5075716;28;20440;-74
2021/08/10 08:01:43;;;;;;;4.90;2.90;;;22.20;77.50;;;;;;5075430;28;20950;-74
2021/08/10 08:04:12;;;;;;;5.60;3.20;;;22.20;78.70;;;;;;5075584;28;20487;-74
2021/08/10 08:06:38;;;;;;;3.67;3.20;;;22.10;78.40;;;;;;5075439;28;21000;-74
2021/08/10 08:09:05;;;;;;;4.23;3.00;;;22.10;79.60;;;;;;5075450;28;20444;-74
2021/08/10 08:11:32;;;;;;;9.03;3.03;;;22.10;79.50;;;;;;5075442;28;20452;-74
2021/08/10 08:13:59;;;;;;;6.63;3.40;;;22.10;79.60;;;;;;5075613;28;20445;-74
2021/08/10 08:16:25;;;;;;;3.83;2.93;;;22.10;79.80;;;;;;5075204;28;20496;-74
2021/08/10 08:18:52;;;;;;;3.70;3.40;;;22.10;79.50;;;;;;5074978;28;20448;-75
2021/08/10 08:21:20;;;;;;;7.40;3.00;;;22.10;79.70;;;;;;5075224;28;20445;-74
2021/08/10 08:23:47;;;;;;;6.00;2.93;;;22.00;78.30;;;;;;5074810;28;20507;-74
2021/08/10 08:26:14;;;;;;;4.17;3.27;;;22.10;78.10;;;;;;5075124;28;20551;-76
2021/08/10 08:28:40;;;;;;;4.60;3.40;;;22.10;78.70;;;;;;5075095;28;20455;-73
2021/08/10 08:31:07;;;;;;;4.13;2.93;;;22.00;77.40;;;;;;5074794;28;20448;-74
2021/08/10 08:33:34;;;;;;;3.40;2.90;;;22.00;79.20;;;;;;5075019;28;20445;-75
2021/08/10 08:36:01;;;;;;;5.17;3.10;;;22.00;79.80;;;;;;5074941;28;20468;-75
2021/08/10 08:38:29;;;;;;;3.10;2.53;;;22.10;79.10;;;;;;5074670;28;20445;-74
2021/08/10 08:40:55;;;;;;;5.07;2.83;;;22.10;80.10;;;;;;5074875;28;20451;-74
2021/08/10 08:43:23;;;;;;;4.40;2.57;;;22.20;78.50;;;;;;5074801;28;20487;-74
2021/08/10 08:45:50;;;;;;;3.30;2.90;;;22.10;78.20;;;;;;5074601;28;20471;-74
2021/08/10 08:48:17;;;;;;;6.30;2.87;;;22.00;79.00;;;;;;5074710;28;20795;-74
2021/08/10 08:50:45;;;;;;;4.03;3.00;;;22.00;79.60;;;;;;5074649;28;20519;-74
2021/08/10 08:53:14;;;;;;;5.47;3.37;;;22.00;78.70;;;;;;5074787;28;20838;-74
2021/08/10 08:55:44;;;;;;;5.03;2.50;;;21.80;77.20;;;;;;5074464;28;20510;-74
2021/08/10 08:58:12;;;;;;;3.20;2.90;;;21.70;79.40;;;;;;5074622;28;20483;-74
2021/08/10 09:00:38;;;;;;;3.23;2.33;;;21.70;80.90;;;;;;5073960;28;20449;-74
2021/08/10 09:03:05;;;;;;;5.23;2.93;;;21.60;79.40;;;;;;5074409;28;20487;-74
2021/08/10 09:05:34;;;;;;;6.57;3.60;;;21.60;80.70;;;;;;5074371;28;20541;-76
2021/08/10 09:08:25;;;;;;;20.47;3.30;;;21.60;82.00;;;;;;5074386;28;20531;-74
2021/08/10 09:10:55;;;;;;;3.47;2.73;;;21.70;80.70;;;;;;5074377;28;20417;-75
2021/08/10 09:13:22;;;;;;;5.57;3.07;;;21.80;80.90;;;;;;5074253;28;20465;-76
2021/08/10 09:15:49;;;;;;;4.23;3.07;;;22.00;78.70;;;;;;5074224;28;20469;-76
2021/08/10 09:18:19;;;;;;;4.00;3.03;;;22.20;79.40;;;;;;5074132;28;20808;-75
2021/08/10 09:21:05;;;;;;;4.47;3.20;;;22.50;79.10;;;;;;5074099;28;20497;-76
2021/08/10 09:23:46;;;;;;;3.27;2.93;;;22.70;77.20;;;;;;5073235;28;20491;-75
2021/08/10 09:26:16;;;;;;;8.00;3.20;;;22.90;76.80;;;;;;5073262;28;20474;-75
2021/08/10 09:28:44;;;;;;;4.57;3.10;;;23.00;75.70;;;;;;5072951;28;20445;-75
2021/08/10 09:31:31;;;;;;;3.70;2.77;;;23.20;75.30;;;;;;5073268;28;20452;-75
2021/08/10 09:33:59;;;;;;;5.13;2.83;;;23.50;75.10;;;;;;5073186;28;20519;-75
2021/08/10 09:36:27;;;;;;;2.80;2.43;;;23.70;73.00;;;;;;5073330;28;20464;-75
2021/08/10 09:38:56;;;;;;;2.73;2.43;;;23.90;72.50;;;;;;5072725;28;20934;-75
2021/08/10 09:41:24;;;;;;;5.17;2.97;;;24.00;72.10;;;;;;5072986;28;20445;-75
2021/08/10 09:44:07;;;;;;;4.13;2.63;;;24.30;69.30;;;;;;5072922;28;20484;-75
2021/08/10 09:46:35;;;;;;;3.97;3.17;;;24.60;69.60;;;;;;5072665;28;20527;-75
2021/08/10 09:49:03;;;;;;;6.27;2.80;;;24.60;67.50;;;;;;5073040;28;20449;-75
2021/08/10 09:51:32;;;;;;;3.27;2.80;;;24.60;66.60;;;;;;5072896;28;20494;-75
2021/08/10 09:54:00;;;;;;;3.70;2.57;;;24.60;67.30;;;;;;5072804;28;20514;-75
2021/08/10 09:56:48;;;;;;;2.83;2.60;;;24.50;67.40;;;;;;5072765;28;20839;-75
2021/08/10 09:59:16;;;;;;;4.70;2.90;;;24.50;67.40;;;;;;5072776;28;20486;-75
2021/08/10 10:01:45;;;;;;;7.90;4.00;;;24.50;69.20;;;;;;5072736;28;20825;-75
2021/08/10 10:04:14;;;;;;;4.47;3.20;;;24.70;68.70;;;;;;5072335;28;20476;-76
2021/08/10 10:06:42;;;;;;;6.77;3.00;;;25.00;68.70;;;;;;5072599;28;20460;-76
2021/08/10 10:09:10;;;;;;;6.10;3.27;;;25.40;64.10;;;;;;5072335;28;20444;-75
2021/08/10 10:11:38;;;;;;;7.17;3.00;;;25.90;63.50;;;;;;5071380;28;20848;-75
2021/08/10 10:14:07;;;;;;;7.60;3.37;;;26.20;61.10;;;;;;5072526;28;20451;-76
2021/08/10 10:16:35;;;;;;;12.97;3.20;;;26.60;59.90;;;;;;5072422;28;20472;-76
2021/08/10 10:19:05;;;;;;;6.90;2.87;;;26.90;58.00;;;;;;5072549;28;20459;-75
2021/08/10 10:21:33;;;;;;;3.10;2.80;;;26.70;56.20;;;;;;5035948;28;1035112;-76
2021/08/10 10:24:03;;;;;;;3.13;2.60;;;26.50;56.70;;;;;;5072940;28;21036;-76
2021/08/10 10:26:32;;;;;;;7.43;3.50;;;26.20;58.10;;;;;;5073015;28;20464;-76
2021/08/10 10:28:59;;;;;;;6.20;3.40;;;26.00;59.10;;;;;;5073290;28;20448;-76
2021/08/10 10:31:28;;;;;;;3.40;3.10;;;25.90;58.70;;;;;;5073294;28;20445;-75
2021/08/10 10:33:57;;;;;;;4.47;4.03;;;25.90;60.20;;;;;;5073241;28;20441;-76
2021/08/10 10:36:23;;;;;;;3.47;3.17;;;26.00;59.40;;;;;;5073144;28;20460;-76
2021/08/10 10:38:54;;;;;;;3.70;2.77;;;26.60;58.20;;;;;;5073196;28;20440;-76
2021/08/10 10:41:22;;;;;;;3.90;3.50;;;27.20;55.50;;;;;;5073208;28;20794;-76
2021/08/10 10:43:52;;;;;;;3.43;2.90;;;27.50;54.90;;;;;;5072803;28;21016;-76
2021/08/10 10:46:29;;;;;;;3.70;3.03;;;27.90;53.50;;;;;;5073344;28;20465;-75
2021/08/10 10:48:57;;;;;;;3.07;2.77;;;28.30;53.80;;;;;;5073169;28;20433;-76
2021/08/10 10:51:26;;;;;;;5.20;2.90;;;28.80;51.70;;;;;;5072936;28;20968;-75
2021/08/10 10:53:54;;;;;;;2.90;2.70;;;29.40;51.50;;;;;;5073090;28;20443;-76
2021/08/10 10:56:34;;;;;;;6.50;3.37;;;29.80;47.40;;;;;;5072682;28;20464;-76
2021/08/10 10:59:21;;;;;;;6.80;3.30;;;30.20;46.10;;;;;;5073009;28;20452;-76
2021/08/10 11:01:49;;;;;;;3.33;3.03;;;30.60;45.90;;;;;;5073064;28;20425;-75
2021/08/10 11:04:16;;;;;;;8.50;3.47;;;30.20;46.40;;;;;;5072902;28;20487;-75
2021/08/10 11:06:46;;;;;;;4.50;2.60;;;30.10;46.10;;;;;;5072878;28;20822;-76
2021/08/10 11:09:54;;;;;;;3.13;2.67;;;30.70;46.00;;;;;;5072946;28;20433;-75
2021/08/10 11:12:41;;;;;;;3.37;2.77;;;31.20;42.90;;;;;;5073833;28;20817;-74
2021/08/10 11:15:09;;;;;;;3.37;2.37;;;31.40;44.20;;;;;;5072807;28;20424;-76
2021/08/10 11:17:37;;;;;;;3.00;2.70;;;31.80;40.90;;;;;;5072782;28;20493;-74
2021/08/10 11:20:24;;;;;;;3.63;2.90;;;32.40;40.90;;;;;;5072792;28;20519;-76
2021/08/10 11:22:51;;;;;;;2.03;1.93;;;32.70;38.30;;;;;;5073265;28;20954;-75
2021/08/10 11:25:23;;;;;;;3.00;2.53;;;33.10;37.20;;;;;;5076227;28;20820;-75
2021/08/10 11:27:50;;;;;;;2.70;2.37;;;33.10;37.60;;;;;;5076010;28;20987;-74
2021/08/10 11:30:44;;;;;;;2.70;2.10;;;33.30;37.20;;;;;;5077629;28;20450;-75
2021/08/10 11:33:40;;;;;;;3.00;2.43;;;33.70;38.00;;;;;;5076989;28;20420;-76
2021/08/10 11:36:23;;;;;;;2.97;2.77;;;34.00;37.00;;;;;;5075783;28;20962;-76
2021/08/10 11:39:06;;;;;;;2.57;2.37;;;34.10;35.20;;;;;;5076080;28;20444;-76
2021/08/10 11:41:34;;;;;;;3.43;2.70;;;34.40;35.20;;;;;;5076048;28;20444;-76
2021/08/10 11:44:03;;;;;;;2.53;2.33;;;34.80;34.60;;;;;;5076186;28;20479;-75
2021/08/10 11:46:33;;;;;;;2.43;1.93;;;35.20;33.40;;;;;;5075873;28;20468;-75
2021/08/10 11:49:03;;;;;;;3.80;3.20;;;35.40;33.10;;;;;;5075879;28;20448;-75
2021/08/10 11:51:34;;;;;;;5.47;3.00;;;35.60;32.00;;;;;;5075886;28;20431;-75
2021/08/10 11:54:07;;;;;;;3.80;3.23;;;35.30;34.00;;;;;;5075843;28;20436;-75
2021/08/10 11:56:36;;;;;;;2.77;2.57;;;34.40;34.90;;;;;;5075951;28;20471;-75
2021/08/10 11:59:05;;;;;;;2.77;2.57;;;33.50;36.40;;;;;;5075416;28;20450;-75
2021/08/10 12:01:35;;;;;;;3.47;3.10;;;33.50;37.40;;;;;;5075904;28;20451;-75
2021/08/10 12:04:17;;;;;;;2.53;2.33;;;34.10;37.40;;;;;;5075598;28;20471;-76
2021/08/10 12:06:44;;;;;;;3.20;2.73;;;34.40;33.10;;;;;;5075524;28;20463;-75
2021/08/10 12:09:12;;;;;;;3.30;3.00;;;34.70;33.80;;;;;;5075526;28;20444;-75
2021/08/10 12:11:40;;;;;;;2.73;2.50;;;35.30;33.90;;;;;;5075478;28;20444;-75
2021/08/10 12:14:14;;;;;;;2.93;2.60;;;35.90;31.20;;;;;;5075383;28;20443;-75
2021/08/10 12:17:00;;;;;;;2.40;2.20;;;36.30;31.80;;;;;;5075373;28;20460;-75
2021/08/10 12:19:36;;;;;;;2.30;2.10;;;36.60;30.70;;;;;;5075368;28;20429;-75
2021/08/10 12:22:06;;;;;;;2.60;2.40;;;36.90;30.00;;;;;;5074963;28;20459;-76
2021/08/10 12:24:37;;;;;;;2.40;2.17;;;37.30;29.30;;;;;;5074812;28;21016;-76
2021/08/10 12:27:04;;;;;;;3.80;2.27;;;37.50;29.00;;;;;;5075084;28;20736;-76
2021/08/10 12:29:35;;;;;;;2.33;2.13;;;37.70;29.10;;;;;;5075141;28;20205;-75
2021/08/10 12:32:02;;;;;;;3.17;2.80;;;37.90;28.30;;;;;;5074794;28;20212;-75
2021/08/10 12:34:30;;;;;;;2.77;2.27;;;38.20;28.30;;;;;;5074144;28;20198;-75
2021/08/10 12:36:59;;;;;;;2.87;2.20;;;38.50;26.50;;;;;;5074962;28;20313;-77
2021/08/10 12:39:26;;;;;;;3.10;2.50;;;38.60;27.20;;;;;;5074940;28;20232;-76
2021/08/10 12:41:55;;;;;;;5.70;2.45;;;38.80;26.30;;;;;;5074959;28;20205;-75
2021/08/10 12:44:24;;;;;;;3.60;2.40;;;39.10;26.60;;;;;;5074785;28;20224;-76
2021/08/10 12:46:55;;;;;;;2.35;1.88;;;39.40;26.50;;;;;;5074730;28;20222;-76
2021/08/10 12:49:33;;;;;;;12.65;2.75;;;39.70;25.40;;;;;;5074789;28;20190;-76
2021/08/10 12:52:03;;;;;;;3.78;2.20;;;40.40;25.50;;;;;;5074730;28;20190;-77
2021/08/10 12:54:31;;;;;;;2.45;2.25;;;40.90;23.80;;;;;;5074670;28;20205;-76